createdAt,value
2019-04-07T00:01:33.102Z,97.03
2019-04-07T00:02:33.085Z,96.75
2019-04-07T00:04:25.810Z,97.61
2019-04-07T00:05:25.735Z,96.36
2019-04-07T00:07:18.715Z,97.51
2019-04-07T00:08:18.563Z,97.41
2019-04-07T00:10:11.231Z,97.61
2019-04-07T00:11:11.156Z,96.84
2019-04-07T00:13:04.080Z,97.51
2019-04-07T00:14:04.051Z,97.51
2019-04-07T00:15:56.745Z,97.89
2019-04-07T00:16:56.955Z,97.22
2019-04-07T00:18:49.622Z,97.89
2019-04-07T00:19:49.468Z,97.41
2019-04-07T00:21:42.344Z,97.99
2019-04-07T00:22:42.192Z,97.51
2019-04-07T00:24:35.296Z,97.41
2019-04-07T00:25:34.886Z,97.41
2019-04-07T00:27:27.732Z,97.22
2019-04-07T00:28:27.675Z,97.80
2019-04-07T00:30:21.128Z,97.70
2019-04-07T00:31:20.576Z,97.80
2019-04-07T00:33:13.374Z,97.99
2019-04-07T00:34:13.110Z,97.70
2019-04-07T00:36:05.919Z,97.80
2019-04-07T00:37:05.818Z,97.70
2019-04-07T00:38:59.389Z,98.36
2019-04-07T00:39:58.942Z,97.61
2019-04-07T00:41:51.826Z,97.32
2019-04-07T00:42:51.333Z,97.32
2019-04-07T00:44:44.297Z,97.41
2019-04-07T00:45:44.072Z,97.41
2019-04-07T00:47:37.280Z,97.41
2019-04-07T00:48:36.745Z,97.51
2019-04-07T00:50:30.518Z,97.22
2019-04-07T00:51:29.764Z,97.70
2019-04-07T00:53:23.194Z,98.18
2019-04-07T00:54:22.693Z,97.61
2019-04-07T00:56:15.815Z,97.99
2019-04-07T00:57:15.117Z,97.13
2019-04-07T00:59:08.021Z,97.80
2019-04-07T01:00:07.919Z,97.80
2019-04-07T01:02:00.683Z,97.70
2019-04-07T01:03:00.614Z,97.70
2019-04-07T01:04:53.425Z,97.89
2019-04-07T01:05:53.367Z,97.80
2019-04-07T01:07:46.435Z,98.03
2019-04-07T01:08:46.381Z,97.89
2019-04-07T01:10:39.271Z,98.85
2019-04-07T01:11:39.628Z,97.51
2019-04-07T01:13:31.998Z,97.99
2019-04-07T01:14:32.345Z,97.99
2019-04-07T01:16:25.166Z,98.08
2019-04-07T01:17:24.469Z,97.51
2019-04-07T01:19:17.858Z,97.61
2019-04-07T01:20:17.279Z,97.22
2019-04-07T01:22:10.117Z,98.18
2019-04-07T01:23:10.606Z,97.80
2019-04-07T01:25:02.693Z,97.61
2019-04-07T01:26:03.217Z,97.89
2019-04-07T01:27:55.580Z,97.80
2019-04-07T01:28:55.595Z,97.65
2019-04-07T01:30:49.036Z,97.61
2019-04-07T01:31:48.463Z,97.75
2019-04-07T01:33:41.610Z,98.22
2019-04-07T01:34:41.570Z,98.22
2019-04-07T01:36:33.910Z,98.60
2019-04-07T01:37:34.074Z,98.51
2019-04-07T01:39:26.515Z,98.41
2019-04-07T01:40:26.408Z,99.18
2019-04-07T01:42:19.182Z,99.18
2019-04-07T01:43:19.086Z,99.27
2019-04-07T01:45:11.896Z,99.13
2019-04-07T01:46:11.807Z,99.84
2019-04-07T01:48:04.950Z,99.79
2019-04-07T01:49:04.516Z,99.13
2019-04-07T01:50:57.315Z,98.94
2019-04-07T01:51:57.636Z,99.22
2019-04-07T01:53:49.987Z,99.13
2019-04-07T01:56:18.454Z,99.60
2019-04-07T01:57:18.469Z,99.94
2019-04-07T01:59:12.078Z,98.46
2019-04-07T02:00:11.156Z,98.94
2019-04-07T02:02:03.875Z,98.94
2019-04-07T02:03:04.262Z,98.84
2019-04-07T02:04:56.582Z,99.22
2019-04-07T02:06:01.523Z,99.41
2019-04-07T02:07:49.316Z,99.22
2019-04-07T02:08:49.244Z,99.03
2019-04-07T02:10:42.819Z,98.94
2019-04-07T02:11:41.966Z,98.74
2019-04-07T02:13:35.075Z,98.84
2019-04-07T02:14:34.672Z,99.22
2019-04-07T02:16:27.846Z,99.22
2019-04-07T02:17:27.360Z,98.84
2019-04-07T02:19:20.469Z,98.94
2019-04-07T02:20:20.723Z,98.84
2019-04-07T02:22:13.519Z,98.55
2019-04-07T02:23:12.824Z,99.22
2019-04-07T02:25:05.526Z,99.13
2019-04-07T02:26:06.040Z,99.79
2019-04-07T02:27:58.410Z,99.03
2019-04-07T02:28:58.407Z,99.13
2019-04-07T02:30:50.966Z,98.84
2019-04-07T02:31:51.969Z,99.32
2019-04-07T02:33:43.854Z,99.69
2019-04-07T02:34:44.091Z,99.41
2019-04-07T02:36:36.456Z,99.99
2019-04-07T02:37:36.363Z,99.03
2019-04-07T02:39:29.389Z,99.99
2019-04-07T02:40:29.141Z,99.99
2019-04-07T02:42:22.793Z,99.98
2019-04-07T02:43:21.966Z,99.55
2019-04-07T02:45:15.125Z,99.79
2019-04-07T02:46:14.917Z,99.60
2019-04-07T02:48:07.902Z,99.98
2019-04-07T02:49:08.208Z,99.60
2019-04-07T02:51:01.283Z,99.84
2019-04-07T02:52:00.597Z,99.46
2019-04-07T02:53:53.356Z,99.74
2019-04-07T02:54:53.225Z,99.99
2019-04-07T02:56:46.246Z,99.93
2019-04-07T02:57:47.427Z,99.99
2019-04-07T02:59:42.258Z,99.93
2019-04-07T03:00:39.384Z,99.99
2019-04-07T03:02:32.315Z,99.84
2019-04-07T03:03:31.875Z,99.93
2019-04-07T03:05:24.761Z,99.99
2019-04-07T03:06:37.297Z,99.99
2019-04-07T03:08:18.433Z,99.99
2019-04-07T03:09:18.720Z,99.99
2019-04-07T03:11:10.729Z,99.99
2019-04-07T03:12:10.471Z,99.99
2019-04-07T03:14:03.732Z,99.55
2019-04-07T03:15:03.328Z,99.99
2019-04-07T03:16:56.163Z,99.99
2019-04-07T03:17:55.984Z,99.99
2019-04-07T03:19:48.816Z,99.99
2019-04-07T03:20:49.529Z,99.99
2019-04-07T03:22:41.907Z,99.93
2019-04-07T03:23:41.644Z,99.93
2019-04-07T03:25:35.397Z,99.99
2019-04-07T03:26:34.321Z,99.99
2019-04-07T03:28:27.267Z,99.99
2019-04-07T03:29:27.025Z,99.99
2019-04-07T03:31:22.075Z,99.99
2019-04-07T03:32:22.334Z,99.99
2019-04-07T03:34:14.499Z,99.99
2019-04-07T03:35:14.991Z,99.99
2019-04-07T03:37:25.932Z,99.99
2019-04-07T03:38:06.481Z,99.99
2019-04-07T03:39:58.899Z,99.99
2019-04-07T03:40:59.120Z,99.99
2019-04-07T03:42:51.444Z,99.99
2019-04-07T03:43:51.367Z,99.99
2019-04-07T03:45:44.264Z,99.99
2019-04-07T03:46:44.188Z,99.99
2019-04-07T03:48:37.964Z,99.99
2019-04-07T03:49:36.866Z,99.99
2019-04-07T03:51:30.180Z,99.99
2019-04-07T03:52:29.663Z,99.99
2019-04-07T03:54:22.875Z,99.99
2019-04-07T03:55:22.761Z,99.99
2019-04-07T03:57:16.442Z,99.99
2019-04-07T03:58:16.227Z,99.99
2019-04-07T04:00:08.547Z,99.99
2019-04-07T04:01:08.298Z,99.99
2019-04-07T04:03:01.243Z,99.99
2019-04-07T04:04:02.187Z,99.99
2019-04-07T04:05:55.007Z,99.99
2019-04-07T04:06:54.710Z,99.99
2019-04-07T04:08:47.557Z,99.99
2019-04-07T04:09:47.598Z,99.99
2019-04-07T04:11:39.770Z,99.99
2019-04-07T04:12:39.673Z,99.99
2019-04-07T04:14:32.254Z,99.99
2019-04-07T04:15:32.897Z,99.99
2019-04-07T04:17:25.159Z,99.99
2019-04-07T04:18:24.884Z,99.99
2019-04-07T04:20:17.646Z,99.99
2019-04-07T04:21:17.795Z,99.99
2019-04-07T04:23:11.251Z,99.99
2019-04-07T04:24:10.363Z,99.99
2019-04-07T04:26:03.085Z,99.99
2019-04-07T04:27:03.020Z,99.99
2019-04-07T04:28:56.587Z,99.99
2019-04-07T04:29:56.683Z,99.99
2019-04-07T04:31:49.126Z,99.99
2019-04-07T04:32:48.532Z,99.99
2019-04-07T04:34:41.686Z,99.99
2019-04-07T04:35:41.282Z,99.99
2019-04-07T04:37:41.952Z,99.99
2019-04-07T04:38:33.964Z,99.99
2019-04-07T04:40:27.951Z,99.99
2019-04-07T04:41:27.388Z,99.99
2019-04-07T04:43:19.796Z,99.99
2019-04-07T04:44:19.443Z,99.99
2019-04-07T04:46:12.751Z,99.99
2019-04-07T04:47:12.490Z,99.99
2019-04-07T04:49:05.068Z,99.99
2019-04-07T04:50:06.203Z,99.99
2019-04-07T04:51:58.660Z,99.99
2019-04-07T04:52:57.804Z,99.99
2019-04-07T04:54:50.468Z,99.99
2019-04-07T04:55:51.388Z,99.99
2019-04-07T04:57:43.177Z,99.99
2019-04-07T04:58:43.097Z,99.99
2019-04-07T05:00:36.290Z,99.99
2019-04-07T05:01:36.228Z,99.99
2019-04-07T05:03:28.702Z,99.99
2019-04-07T05:04:29.306Z,99.99
2019-04-07T05:06:21.358Z,99.99
2019-04-07T05:07:22.809Z,99.99
2019-04-07T05:09:14.587Z,99.99
2019-04-07T05:10:13.898Z,99.99
2019-04-07T05:12:06.943Z,99.99
2019-04-07T05:13:07.529Z,99.99
2019-04-07T05:14:59.357Z,99.99
2019-04-07T05:15:59.455Z,99.99
2019-04-07T05:17:52.064Z,99.99
2019-04-07T05:18:51.980Z,99.99
2019-04-07T05:20:45.319Z,99.99
2019-04-07T05:21:44.679Z,99.99
2019-04-07T05:23:37.505Z,99.99
2019-04-07T05:24:37.671Z,99.99
2019-04-07T05:26:31.199Z,99.99
2019-04-07T05:27:30.214Z,99.99
2019-04-07T05:29:22.815Z,99.99
2019-04-07T05:30:22.757Z,99.99
2019-04-07T05:32:15.781Z,99.99
2019-04-07T05:33:15.469Z,99.84
2019-04-07T05:35:08.898Z,99.99
2019-04-07T05:36:08.844Z,99.65
2019-04-07T05:38:04.063Z,99.93
2019-04-07T05:39:01.008Z,99.99
2019-04-07T05:40:53.707Z,99.74
2019-04-07T05:41:53.682Z,99.55
2019-04-07T05:43:46.860Z,99.99
2019-04-07T05:44:46.253Z,99.74
2019-04-07T05:46:42.310Z,99.22
2019-04-07T05:47:43.653Z,99.27
2019-04-07T05:49:32.470Z,98.60
2019-04-07T05:50:31.860Z,98.89
2019-04-07T05:52:24.424Z,97.32
2019-04-07T05:53:24.426Z,97.80
2019-04-07T05:55:20.725Z,97.51
2019-04-07T05:56:17.622Z,97.80
2019-04-07T05:58:10.531Z,97.94
2019-04-07T05:59:12.130Z,98.89
2019-04-07T06:01:02.849Z,98.99
2019-04-07T06:02:03.058Z,98.70
2019-04-07T06:03:55.422Z,98.03
2019-04-07T06:04:55.140Z,98.94
2019-04-07T06:06:51.135Z,98.75
2019-04-07T06:07:47.948Z,97.80
2019-04-07T06:09:40.640Z,97.75
2019-04-07T06:10:41.110Z,97.32
2019-04-07T06:12:33.890Z,95.56
2019-04-07T06:13:33.276Z,95.84
2019-04-07T06:15:26.057Z,97.08
2019-04-07T06:16:26.749Z,96.61
2019-04-07T06:18:19.441Z,97.17
2019-04-07T06:19:19.182Z,97.08
2019-04-07T06:21:14.111Z,96.46
2019-04-07T06:22:11.519Z,95.27
2019-04-07T06:24:04.724Z,92.64
2019-04-07T06:25:05.553Z,91.69
2019-04-07T06:26:57.519Z,90.88
2019-04-07T06:27:56.911Z,88.72
2019-04-07T06:29:50.113Z,82.53
2019-04-07T06:30:49.604Z,80.85
2019-04-07T06:32:43.700Z,76.71
2019-04-07T06:33:42.309Z,75.43
2019-04-07T06:35:35.732Z,74.83
2019-04-07T06:36:35.189Z,73.62
2019-04-07T06:38:33.856Z,69.60
2019-04-07T06:39:27.763Z,68.19
2019-04-07T06:41:21.774Z,66.14
2019-04-07T06:42:20.869Z,65.08
2019-04-07T06:44:15.856Z,64.43
2019-04-07T06:45:13.174Z,64.05
2019-04-07T06:47:06.526Z,63.38
2019-04-07T06:48:08.274Z,63.41
2019-04-07T06:49:58.678Z,60.77
2019-04-07T06:51:00.281Z,60.48
2019-04-07T06:52:51.966Z,59.74
2019-04-07T06:53:51.483Z,59.55
2019-04-07T06:55:44.126Z,59.32
2019-04-07T06:56:44.704Z,58.94
2019-04-07T06:58:41.341Z,59.42
2019-04-07T06:59:37.262Z,59.25
2019-04-07T07:01:29.742Z,57.19
2019-04-07T07:02:31.172Z,56.51
2019-04-07T07:04:22.358Z,57.48
2019-04-07T07:05:22.413Z,56.71
2019-04-07T07:07:16.757Z,58.07
2019-04-07T07:08:16.981Z,59.07
2019-04-07T07:10:08.297Z,60.03
2019-04-07T07:11:08.244Z,60.93
2019-04-07T07:13:02.793Z,60.06
2019-04-07T07:14:00.435Z,60.28
2019-04-07T07:15:54.023Z,58.93
2019-04-07T07:16:53.434Z,57.78
2019-04-07T07:18:47.025Z,58.97
2019-04-07T07:19:46.154Z,59.16
2019-04-07T07:21:39.618Z,59.09
2019-04-07T07:22:41.531Z,58.55
2019-04-07T07:24:31.700Z,58.97
2019-04-07T07:25:33.054Z,59.23
2019-04-07T07:27:25.122Z,59.55
2019-04-07T07:28:24.324Z,59.64
2019-04-07T07:30:18.333Z,59.60
2019-04-07T07:31:18.146Z,57.99
2019-04-07T07:33:11.109Z,57.79
2019-04-07T07:34:11.063Z,57.42
2019-04-07T07:36:02.570Z,60.45
2019-04-07T07:37:03.029Z,61.00
2019-04-07T07:39:01.203Z,61.96
2019-04-07T07:39:55.387Z,63.12
2019-04-07T07:41:50.316Z,62.79
2019-04-07T07:42:50.710Z,61.09
2019-04-07T07:44:40.731Z,60.28
2019-04-07T07:45:44.817Z,61.03
2019-04-07T07:47:33.780Z,61.13
2019-04-07T07:48:33.417Z,62.51
2019-04-07T07:50:26.674Z,63.41
2019-04-07T07:51:26.748Z,63.92
2019-04-07T07:53:22.358Z,63.34
2019-04-07T07:54:18.889Z,63.02
2019-04-07T07:56:13.145Z,60.11
2019-04-07T07:57:12.288Z,59.34
2019-04-07T07:59:04.564Z,58.72
2019-04-07T08:00:06.752Z,57.86
2019-04-07T08:01:57.833Z,57.41
2019-04-07T08:02:57.232Z,57.99
2019-04-07T08:04:51.012Z,57.95
2019-04-07T08:05:50.049Z,57.48
2019-04-07T08:07:46.806Z,59.31
2019-04-07T08:08:45.203Z,58.80
2019-04-07T08:10:36.350Z,57.93
2019-04-07T08:11:35.919Z,58.70
2019-04-07T08:13:29.007Z,58.45
2019-04-07T08:14:29.270Z,58.15
2019-04-07T08:16:21.680Z,59.35
2019-04-07T08:17:21.494Z,59.28
2019-04-07T08:19:14.346Z,59.99
2019-04-07T08:20:14.275Z,59.15
2019-04-07T08:22:08.010Z,58.37
2019-04-07T08:23:06.991Z,57.89
2019-04-07T08:24:59.994Z,57.96
2019-04-07T08:26:00.458Z,57.93
2019-04-07T08:27:53.131Z,59.83
2019-04-07T08:28:53.346Z,60.19
2019-04-07T08:30:47.470Z,60.80
2019-04-07T08:31:45.442Z,60.16
2019-04-07T08:33:38.600Z,58.37
2019-04-07T08:34:38.216Z,57.44
2019-04-07T08:36:31.044Z,58.61
2019-04-07T08:37:30.999Z,59.34
2019-04-07T08:39:26.726Z,57.88
2019-04-07T08:40:24.234Z,55.66
2019-04-07T08:42:18.718Z,55.07
2019-04-07T08:43:19.791Z,55.77
2019-04-07T08:45:09.487Z,57.87
2019-04-07T08:46:09.924Z,57.70
2019-04-07T08:48:02.314Z,58.25
2019-04-07T08:49:02.143Z,57.12
2019-04-07T08:50:57.247Z,57.15
2019-04-07T08:51:54.974Z,56.70
2019-04-07T08:53:48.420Z,54.39
2019-04-07T08:54:50.369Z,54.98
2019-04-07T08:56:40.662Z,54.03
2019-04-07T08:57:41.192Z,53.81
2019-04-07T08:59:33.271Z,56.93
2019-04-07T09:00:33.642Z,57.74
2019-04-07T09:02:28.411Z,57.51
2019-04-07T09:03:26.246Z,57.21
2019-04-07T09:05:22.443Z,55.36
2019-04-07T09:06:19.555Z,54.52
2019-04-07T09:08:11.802Z,52.61
2019-04-07T09:09:12.154Z,52.64
2019-04-07T09:11:04.702Z,52.32
2019-04-07T09:12:04.853Z,52.76
2019-04-07T09:13:58.715Z,51.37
2019-04-07T09:14:57.278Z,51.57
2019-04-07T09:16:53.273Z,52.42
2019-04-07T09:17:50.146Z,51.96
2019-04-07T09:19:44.204Z,53.02
2019-04-07T09:20:44.929Z,54.25
2019-04-07T09:22:36.374Z,54.75
2019-04-07T09:23:35.812Z,53.91
2019-04-07T09:25:28.722Z,52.87
2019-04-07T09:26:28.675Z,53.55
2019-04-07T09:28:23.939Z,54.69
2019-04-07T09:29:24.967Z,54.45
2019-04-07T09:31:14.340Z,52.18
2019-04-07T09:32:14.111Z,51.28
2019-04-07T09:34:07.080Z,53.21
2019-04-07T09:35:07.258Z,53.59
2019-04-07T09:37:00.240Z,53.43
2019-04-07T09:38:00.361Z,53.26
2019-04-07T09:39:58.502Z,50.12
2019-04-07T09:40:52.731Z,50.16
2019-04-07T09:42:45.951Z,49.07
2019-04-07T09:43:45.222Z,50.50
2019-04-07T09:45:39.485Z,50.62
2019-04-07T09:46:41.986Z,51.28
2019-04-07T09:48:31.131Z,51.28
2019-04-07T09:49:31.006Z,51.32
2019-04-07T09:51:24.368Z,49.24
2019-04-07T09:52:23.691Z,48.08
2019-04-07T09:54:17.646Z,49.22
2019-04-07T09:55:16.701Z,50.67
2019-04-07T09:57:09.697Z,49.05
2019-04-07T09:58:11.554Z,48.49
2019-04-07T10:00:02.327Z,47.64
2019-04-07T10:01:02.368Z,47.25
2019-04-07T10:02:55.129Z,47.25
2019-04-07T10:03:54.959Z,47.35
2019-04-07T10:05:47.917Z,48.61
2019-04-07T10:06:49.593Z,48.93
2019-04-07T10:08:40.886Z,47.91
2019-04-07T10:09:41.142Z,48.08
2019-04-07T10:11:33.886Z,49.34
2019-04-07T10:12:33.561Z,50.16
2019-04-07T10:14:27.124Z,48.83
2019-04-07T10:15:26.357Z,48.18
2019-04-07T10:17:19.192Z,46.94
2019-04-07T10:18:19.224Z,46.33
2019-04-07T10:20:12.406Z,46.99
2019-04-07T10:21:11.910Z,47.45
2019-04-07T10:23:05.160Z,48.03
2019-04-07T10:24:05.267Z,47.84
2019-04-07T10:25:58.466Z,47.50
2019-04-07T10:26:57.743Z,46.84
2019-04-07T10:28:51.777Z,47.67
2019-04-07T10:29:51.345Z,47.19
2019-04-07T10:31:44.208Z,47.03
2019-04-07T10:32:44.106Z,46.65
2019-04-07T10:34:37.480Z,45.51
2019-04-07T10:35:36.787Z,46.31
2019-04-07T10:37:30.235Z,46.63
2019-04-07T10:38:30.325Z,48.35
2019-04-07T10:40:23.367Z,50.16
2019-04-07T10:41:22.816Z,50.04
2019-04-07T10:43:15.111Z,50.43
2019-04-07T10:44:15.049Z,50.62
2019-04-07T10:46:07.993Z,49.10
2019-04-07T10:47:07.817Z,49.22
2019-04-07T10:49:01.384Z,47.64
2019-04-07T10:50:05.184Z,47.47
2019-04-07T10:51:53.427Z,46.80
2019-04-07T10:52:53.501Z,47.96
2019-04-07T10:54:47.264Z,48.66
2019-04-07T10:55:46.710Z,50.21
2019-04-07T10:57:39.512Z,51.32
2019-04-07T10:58:39.471Z,52.73
2019-04-07T11:00:33.453Z,53.29
2019-04-07T11:01:33.390Z,54.22
2019-04-07T11:03:26.120Z,55.74
2019-04-07T11:04:26.031Z,55.67
2019-04-07T11:06:19.194Z,55.67
2019-04-07T11:07:19.039Z,55.67
2019-04-07T11:09:11.594Z,56.12
2019-04-07T11:10:11.581Z,56.90
2019-04-07T11:12:04.948Z,55.45
2019-04-07T11:13:04.546Z,55.57
2019-04-07T11:14:57.408Z,54.30
2019-04-07T11:15:57.680Z,54.10
2019-04-07T11:17:50.320Z,54.78
2019-04-07T11:18:50.421Z,54.52
2019-04-07T11:20:43.378Z,54.16
2019-04-07T11:21:42.887Z,54.44
2019-04-07T11:23:35.883Z,55.57
2019-04-07T11:24:35.478Z,55.38
2019-04-07T11:26:28.248Z,55.87
2019-04-07T11:27:29.390Z,56.37
2019-04-07T11:29:21.149Z,53.65
2019-04-07T11:30:21.360Z,53.36
2019-04-07T11:32:13.982Z,54.39
2019-04-07T11:33:13.689Z,54.56
2019-04-07T11:35:07.110Z,55.52
2019-04-07T11:36:06.543Z,56.10
2019-04-07T11:38:00.316Z,55.52
2019-04-07T11:38:59.439Z,56.48
2019-04-07T11:40:53.438Z,55.62
2019-04-07T11:41:52.735Z,54.94
2019-04-07T11:43:45.226Z,55.74
2019-04-07T11:44:45.604Z,55.16
2019-04-07T11:46:38.851Z,55.71
2019-04-07T11:47:38.050Z,56.22
2019-04-07T11:49:31.278Z,56.00
2019-04-07T11:50:30.970Z,54.68
2019-04-07T11:52:23.643Z,54.49
2019-04-07T11:53:24.174Z,54.17
2019-04-07T11:55:17.300Z,53.09
2019-04-07T11:56:16.421Z,54.46
2019-04-07T11:58:14.818Z,54.17
2019-04-07T11:59:10.105Z,54.56
2019-04-07T12:01:03.580Z,55.81
2019-04-07T12:02:03.686Z,54.65
2019-04-07T12:03:57.093Z,54.94
2019-04-07T12:04:55.905Z,54.68
2019-04-07T12:06:49.786Z,53.05
2019-04-07T12:07:53.988Z,54.20
2019-04-07T12:09:41.648Z,52.66
2019-04-07T12:10:53.498Z,53.27
2019-04-07T12:12:35.546Z,52.95
2019-04-07T12:13:34.890Z,52.75
2019-04-07T12:15:28.919Z,51.89
2019-04-07T12:16:29.308Z,51.86
2019-04-07T12:18:20.389Z,53.59
2019-04-07T12:19:22.804Z,52.25
2019-04-07T12:21:20.749Z,50.61
2019-04-07T12:22:13.994Z,48.59
2019-04-07T12:24:06.044Z,48.02
2019-04-07T12:25:06.645Z,49.27
2019-04-07T12:27:00.727Z,51.57
2019-04-07T12:27:58.539Z,51.86
2019-04-07T12:29:51.598Z,51.60
2019-04-07T12:30:51.307Z,51.21
2019-04-07T12:32:44.146Z,49.32
2019-04-07T12:33:44.045Z,49.70
2019-04-07T12:35:36.810Z,50.37
2019-04-07T12:36:37.582Z,49.79
2019-04-07T12:38:29.486Z,49.79
2019-04-07T12:39:31.588Z,48.74
2019-04-07T12:41:23.354Z,51.12
2019-04-07T12:42:22.406Z,52.08
2019-04-07T12:44:15.790Z,52.75
2019-04-07T12:45:15.006Z,52.54
2019-04-07T12:47:08.084Z,52.18
2019-04-07T12:48:07.720Z,50.73
2019-04-07T12:50:00.644Z,51.02
2019-04-07T12:51:00.836Z,52.18
2019-04-07T12:52:54.032Z,53.23
2019-04-07T12:53:53.973Z,53.65
2019-04-07T12:55:53.403Z,53.72
2019-04-07T12:56:46.750Z,53.91
2019-04-07T12:58:41.237Z,53.05
2019-04-07T12:59:39.145Z,53.62
2019-04-07T13:01:31.744Z,53.53
2019-04-07T13:02:31.857Z,53.81
2019-04-07T13:04:24.522Z,53.23
2019-04-07T13:05:24.473Z,53.05
2019-04-07T13:07:19.746Z,54.30
2019-04-07T13:08:19.939Z,55.09
2019-04-07T13:10:10.490Z,53.59
2019-04-07T13:11:11.862Z,53.69
2019-04-07T13:13:03.664Z,54.27
2019-04-07T13:14:06.327Z,54.17
2019-04-07T13:15:55.711Z,54.17
2019-04-07T13:16:58.798Z,53.50
2019-04-07T13:18:49.993Z,53.40
2019-04-07T13:19:50.315Z,54.46
2019-04-07T13:21:41.432Z,53.50
2019-04-07T13:22:42.138Z,53.62
2019-04-07T13:24:37.754Z,53.72
2019-04-07T13:25:34.333Z,54.20
2019-04-07T13:27:27.713Z,53.72
2019-04-07T13:28:27.502Z,53.23
2019-04-07T13:30:20.395Z,53.91
2019-04-07T13:31:20.212Z,53.33
2019-04-07T13:33:12.959Z,53.27
2019-04-07T13:34:12.877Z,52.56
2019-04-07T13:36:06.154Z,53.43
2019-04-07T13:37:06.938Z,53.62
2019-04-07T13:38:58.871Z,53.23
2019-04-07T13:39:58.870Z,53.05
2019-04-07T13:41:55.324Z,53.81
2019-04-07T13:42:52.099Z,54.13
2019-04-07T13:44:45.820Z,53.36
2019-04-07T13:45:46.216Z,53.94
2019-04-07T13:47:42.094Z,53.55
2019-04-07T13:48:37.919Z,52.47
2019-04-07T13:50:31.902Z,52.75
2019-04-07T13:51:30.418Z,53.45
2019-04-07T13:53:25.815Z,53.05
2019-04-07T13:54:23.082Z,52.78
2019-04-07T13:56:17.393Z,53.05
2019-04-07T13:57:15.538Z,53.84
2019-04-07T13:59:10.907Z,52.97
2019-04-07T14:00:08.027Z,52.85
2019-04-07T14:02:00.837Z,53.14
2019-04-07T14:03:01.402Z,53.27
2019-04-07T14:04:55.773Z,52.56
2019-04-07T14:05:53.580Z,52.95
2019-04-07T14:07:49.181Z,52.44
2019-04-07T14:08:46.983Z,53.59
2019-04-07T14:10:39.388Z,53.33
2019-04-07T14:11:52.491Z,53.23
2019-04-07T14:13:35.594Z,52.66
2019-04-07T14:14:32.689Z,52.40
2019-04-07T14:16:24.721Z,51.34
2019-04-07T14:17:24.778Z,52.18
2019-04-07T14:19:17.810Z,52.08
2019-04-07T14:20:17.248Z,52.30
2019-04-07T14:22:10.146Z,52.37
2019-04-07T14:23:10.035Z,52.08
2019-04-07T14:25:03.890Z,52.37
2019-04-07T14:26:03.619Z,52.95
2019-04-07T14:27:56.656Z,52.75
2019-04-07T14:28:56.540Z,53.33
2019-04-07T14:30:49.907Z,52.59
2019-04-07T14:31:49.176Z,52.30
2019-04-07T14:33:42.516Z,52.20
2019-04-07T14:34:41.796Z,52.30
2019-04-07T14:36:35.105Z,52.69
2019-04-07T14:37:35.283Z,52.20
2019-04-07T14:39:28.190Z,51.24
2019-04-07T14:40:27.972Z,51.50
2019-04-07T14:42:20.291Z,52.59
2019-04-07T14:43:20.964Z,52.37
2019-04-07T14:45:12.941Z,51.50
2019-04-07T14:46:12.871Z,53.07
2019-04-07T14:48:05.616Z,52.20
2019-04-07T14:49:05.564Z,52.49
2019-04-07T14:50:59.178Z,52.47
2019-04-07T14:51:58.501Z,51.79
2019-04-07T14:53:51.359Z,51.41
2019-04-07T14:54:57.025Z,51.89
2019-04-07T14:56:43.928Z,51.41
2019-04-07T14:57:44.631Z,51.21
2019-04-07T14:59:36.879Z,51.48
2019-04-07T15:00:37.479Z,51.67
2019-04-07T15:02:30.176Z,52.15
2019-04-07T15:03:29.397Z,52.15
2019-04-07T15:05:25.255Z,52.06
2019-04-07T15:06:22.831Z,51.89
2019-04-07T15:08:15.232Z,51.86
2019-04-07T15:09:14.926Z,51.57
2019-04-07T15:11:07.956Z,52.18
2019-04-07T15:12:15.953Z,52.56
2019-04-07T15:14:01.573Z,52.08
2019-04-07T15:15:05.233Z,51.12
2019-04-07T15:16:53.496Z,51.79
2019-04-07T15:17:53.114Z,52.20
2019-04-07T15:19:46.231Z,51.89
2019-04-07T15:20:46.260Z,51.79
2019-04-07T15:22:39.031Z,50.73
2019-04-07T15:23:38.645Z,51.31
2019-04-07T15:25:31.446Z,51.12
2019-04-07T15:26:31.405Z,51.02
2019-04-07T15:28:24.770Z,52.08
2019-04-07T15:29:24.319Z,51.31
2019-04-07T15:31:18.351Z,52.27
2019-04-07T15:32:17.091Z,52.37
2019-04-07T15:34:11.928Z,52.27
2019-04-07T15:35:12.464Z,52.08
2019-04-07T15:37:02.479Z,56.67
2019-04-07T15:38:03.234Z,54.17
2019-04-07T15:39:55.850Z,57.54
2019-04-07T15:40:55.919Z,63.12
2019-04-07T15:42:50.684Z,57.64
2019-04-07T15:43:48.893Z,56.20
2019-04-07T15:45:42.676Z,51.60
2019-04-07T15:46:41.527Z,52.63
2019-04-07T15:48:34.040Z,52.25
2019-04-07T15:49:34.365Z,51.38
2019-04-07T15:51:26.393Z,52.34
2019-04-07T15:52:26.404Z,58.40
2019-04-07T15:54:22.326Z,56.29
2019-04-07T15:55:19.064Z,52.92
2019-04-07T15:57:11.803Z,59.17
2019-04-07T15:58:11.744Z,54.56
2019-04-07T16:00:05.485Z,53.31
2019-04-07T16:01:07.324Z,54.36
2019-04-07T16:02:57.818Z,55.45
2019-04-07T16:03:57.203Z,55.74
2019-04-07T16:05:50.238Z,55.52
2019-04-07T16:06:50.627Z,58.50
2019-04-07T16:08:43.023Z,56.58
2019-04-07T16:09:50.881Z,57.99
2019-04-07T16:11:35.650Z,57.25
2019-04-07T16:12:44.900Z,57.92
2019-04-07T16:14:28.568Z,59.94
2019-04-07T16:15:28.485Z,56.10
2019-04-07T16:17:21.286Z,55.11
2019-04-07T16:18:22.056Z,52.54
2019-04-07T16:20:21.418Z,56.07
2019-04-07T16:21:14.278Z,54.63
2019-04-07T16:23:07.069Z,53.57
2019-04-07T16:24:07.341Z,53.19
2019-04-07T16:26:01.142Z,54.82
2019-04-07T16:27:03.301Z,54.91
2019-04-07T16:28:52.905Z,54.05
2019-04-07T16:29:52.947Z,54.14
2019-04-07T16:31:46.480Z,55.20
2019-04-07T16:32:45.528Z,52.99
2019-04-07T16:34:41.150Z,53.86
2019-04-07T16:35:38.249Z,53.76
2019-04-07T16:37:31.971Z,56.74
2019-04-07T16:38:31.791Z,55.30
2019-04-07T16:40:23.897Z,54.12
2019-04-07T16:41:23.766Z,54.53
2019-04-07T16:43:17.988Z,54.12
2019-04-07T16:44:17.009Z,56.62
2019-04-07T16:46:10.563Z,54.60
2019-04-07T16:47:20.204Z,54.89
2019-04-07T16:49:02.569Z,59.02
2019-04-07T16:50:03.175Z,58.45
2019-04-07T16:51:58.279Z,56.52
2019-04-07T16:52:55.339Z,56.33
2019-04-07T16:54:47.874Z,56.14
2019-04-07T16:55:51.722Z,53.54
2019-04-07T16:57:40.642Z,57.29
2019-04-07T16:58:41.537Z,56.01
2019-04-07T17:00:34.411Z,55.15
2019-04-07T17:01:33.595Z,56.01
2019-04-07T17:03:27.447Z,56.01
2019-04-07T17:04:26.772Z,56.01
2019-04-07T17:06:19.951Z,54.19
2019-04-07T17:07:21.126Z,53.13
2019-04-07T17:09:12.143Z,56.21
2019-04-07T17:10:11.689Z,54.77
2019-04-07T17:12:04.506Z,54.67
2019-04-07T17:13:14.629Z,57.65
2019-04-07T17:14:57.824Z,54.74
2019-04-07T17:15:57.323Z,57.17
2019-04-07T17:17:52.460Z,56.08
2019-04-07T17:18:51.026Z,55.51
2019-04-07T17:20:42.833Z,57.81
2019-04-07T17:21:43.103Z,57.52
2019-04-07T17:23:36.427Z,59.03
2019-04-07T17:24:35.431Z,55.79
2019-04-07T17:26:28.357Z,56.53
2019-04-07T17:27:28.201Z,57.50
2019-04-07T17:29:22.341Z,56.82
2019-04-07T17:30:23.650Z,57.11
2019-04-07T17:32:13.799Z,55.86
2019-04-07T17:33:13.996Z,57.50
2019-04-07T17:35:07.354Z,59.00
2019-04-07T17:36:06.521Z,60.05
2019-04-07T17:38:03.559Z,59.00
2019-04-07T17:38:59.325Z,56.98
2019-04-07T17:40:52.253Z,58.71
2019-04-07T17:41:52.155Z,56.51
2019-04-07T17:43:52.662Z,60.15
2019-04-07T17:44:47.807Z,57.65
2019-04-07T17:46:38.187Z,60.25
2019-04-07T17:47:38.404Z,60.31
2019-04-07T17:49:33.508Z,61.08
2019-04-07T17:50:31.720Z,57.53
2019-04-07T17:52:24.676Z,61.18
2019-04-07T17:53:23.720Z,60.22
2019-04-07T17:55:17.523Z,60.03
2019-04-07T17:56:19.994Z,57.24
2019-04-07T17:58:10.176Z,59.61
2019-04-07T17:59:13.091Z,59.13
2019-04-07T18:01:02.348Z,59.52
2019-04-07T18:02:02.382Z,60.00
2019-04-07T18:03:55.147Z,63.70
2019-04-07T18:04:55.114Z,59.01
2019-04-07T18:06:49.457Z,57.57
2019-04-07T18:07:48.822Z,59.68
2019-04-07T18:09:41.737Z,62.55
2019-04-07T18:10:41.164Z,59.01
2019-04-07T18:12:33.985Z,60.06
2019-04-07T18:13:43.863Z,60.06
2019-04-07T18:15:27.431Z,59.87
2019-04-07T18:16:26.726Z,63.89
2019-04-07T18:18:23.570Z,62.74
2019-04-07T18:19:19.744Z,60.25
2019-04-07T18:21:15.424Z,59.87
2019-04-07T18:22:12.554Z,59.39
2019-04-07T18:24:04.918Z,63.22
2019-04-07T18:25:05.223Z,62.17
2019-04-07T18:26:58.376Z,59.75
2019-04-07T18:27:57.617Z,59.84
2019-04-07T18:29:50.680Z,62.33
2019-04-07T18:30:51.403Z,61.08
2019-04-07T18:32:45.018Z,60.89
2019-04-07T18:33:43.525Z,63.96